Terminal Aerodrome Forecast
Issued by NWS

Home | Current Version | Previous Version | Text Only | Print | Product List | Glossary On
Versions: 1 2 3 4 5 6 7 8 9 10 11 12 13
000
FTAK31 PANC 231142
TAFAVD
TAF
PAVD 231142Z 2312/2412 VRB03KT P6SM VCSH SCT020 OVC045
     FM231500 VRB03KT P6SM FEW040 SCT060
     FM240800 VRB03KT P6SM FEW010 BKN030
      AMD LTD TO CLD VIS AND WIND=

USA.gov is the U.S. government's official web portal to all federal, state and local government web resources and services.